createdAt,value
2023-01-13T00:00:10.184Z,1.90
2023-01-13T00:01:14.020Z,1.83
2023-01-13T00:02:15.531Z,2.67
2023-01-13T00:03:17.043Z,2.15
2023-01-13T00:04:18.509Z,2.08
2023-01-13T00:05:22.601Z,2.35
2023-01-13T00:06:29.299Z,1.70
2023-01-13T00:07:30.918Z,3.22
2023-01-13T00:08:32.668Z,2.58
2023-01-13T00:09:34.209Z,2.38
2023-01-13T00:10:36.054Z,2.58
2023-01-13T00:11:37.582Z,3.28
2023-01-13T00:12:40.762Z,2.40
2023-01-13T00:13:42.344Z,3.20
2023-01-13T00:14:43.960Z,2.13
2023-01-13T00:15:55.904Z,2.10
2023-01-13T00:16:57.456Z,2.22
2023-01-13T00:17:59.251Z,1.58
2023-01-13T00:19:00.742Z,3.25
2023-01-13T00:20:02.390Z,2.83
2023-01-13T00:21:17.692Z,2.15
2023-01-13T00:22:19.230Z,1.83
2023-01-13T00:23:20.685Z,6.93
2023-01-13T00:24:22.248Z,3.10
2023-01-13T00:25:23.728Z,3.00
2023-01-13T00:26:27.602Z,2.05
2023-01-13T00:27:29.278Z,1.85
2023-01-13T00:28:30.807Z,2.28
2023-01-13T00:29:32.305Z,3.85
2023-01-13T00:30:34.165Z,2.25
2023-01-13T00:31:35.806Z,1.60
2023-01-13T00:32:37.819Z,2.00
2023-01-13T00:33:39.540Z,3.08
2023-01-13T00:34:41.055Z,2.20
2023-01-13T00:35:42.548Z,2.38
2023-01-13T00:36:44.092Z,1.98
2023-01-13T00:37:45.553Z,2.60
2023-01-13T00:38:47.836Z,2.15
2023-01-13T00:39:51.643Z,2.85
2023-01-13T00:41:01.067Z,3.42
2023-01-13T00:42:21.466Z,2.55
2023-01-13T00:43:22.954Z,3.75
2023-01-13T00:44:24.442Z,2.25
2023-01-13T00:45:25.924Z,1.60
2023-01-13T00:46:27.409Z,2.00
2023-01-13T00:47:28.917Z,1.80
2023-01-13T00:48:30.947Z,3.20
2023-01-13T00:50:33.854Z,1.70
2023-01-13T00:51:35.311Z,2.15
2023-01-13T00:52:36.772Z,2.47
2023-01-13T00:53:43.117Z,1.58
2023-01-13T00:54:44.689Z,2.65
2023-01-13T00:55:46.173Z,1.75
2023-01-13T00:56:47.654Z,3.80
2023-01-13T00:57:49.119Z,2.00
2023-01-13T00:58:51.980Z,1.95
2023-01-13T00:59:53.427Z,3.22
2023-01-13T01:00:55.023Z,2.05
2023-01-13T01:01:56.924Z,1.95
2023-01-13T01:02:58.905Z,3.58
2023-01-13T01:04:00.374Z,1.55
2023-01-13T01:05:01.896Z,1.63
2023-01-13T01:06:07.410Z,2.85
2023-01-13T01:07:08.950Z,2.53
2023-01-13T01:08:10.429Z,1.70
2023-01-13T01:09:14.911Z,1.40
2023-01-13T01:10:16.800Z,1.90
2023-01-13T01:11:21.430Z,2.90
2023-01-13T01:12:22.904Z,1.40
2023-01-13T01:13:24.359Z,1.40
2023-01-13T01:14:27.165Z,1.35
2023-01-13T01:15:28.657Z,1.73
2023-01-13T01:16:32.117Z,1.40
2023-01-13T01:17:33.795Z,1.17
2023-01-13T01:18:37.134Z,1.30
2023-01-13T01:19:38.822Z,2.13
2023-01-13T01:20:40.323Z,2.75
2023-01-13T01:21:41.870Z,1.30
2023-01-13T01:22:43.399Z,2.47
2023-01-13T01:23:45.457Z,2.60
2023-01-13T01:25:48.966Z,2.13
2023-01-13T01:26:50.439Z,2.40
2023-01-13T01:27:52.067Z,1.95
2023-01-13T01:28:54.316Z,2.28
2023-01-13T01:29:55.847Z,2.92
2023-01-13T01:31:00.239Z,3.78
2023-01-13T01:32:01.719Z,2.13
2023-01-13T01:33:05.189Z,5.32
2023-01-13T01:34:06.645Z,1.95
2023-01-13T01:35:08.476Z,1.80
2023-01-13T01:36:12.217Z,2.28
2023-01-13T01:37:13.691Z,1.08
2023-01-13T01:38:15.173Z,3.03
2023-01-13T01:39:16.695Z,2.72
2023-01-13T01:40:18.237Z,2.58
2023-01-13T01:41:22.700Z,2.70
2023-01-13T01:42:42.631Z,1.85
2023-01-13T01:43:59.181Z,2.05
2023-01-13T01:45:21.487Z,1.20
2023-01-13T01:46:23.007Z,1.73
2023-01-13T01:47:25.477Z,1.42
2023-01-13T01:48:30.827Z,2.88
2023-01-13T01:49:35.278Z,2.22
2023-01-13T01:50:37.274Z,2.08
2023-01-13T01:52:49.322Z,1.80
2023-01-13T01:53:51.989Z,1.02
2023-01-13T01:55:02.413Z,1.45
2023-01-13T01:56:04.014Z,1.20
2023-01-13T01:57:07.615Z,3.00
2023-01-13T01:58:15.619Z,2.38
2023-01-13T02:00:19.120Z,1.63
2023-01-13T02:01:21.041Z,1.48
2023-01-13T02:02:22.665Z,1.90
2023-01-13T02:03:24.224Z,1.42
2023-01-13T02:04:33.784Z,1.10
2023-01-13T02:05:35.721Z,1.40
2023-01-13T02:06:38.145Z,0.90
2023-01-13T02:07:43.030Z,1.65
2023-01-13T02:08:44.609Z,2.22
2023-01-13T02:09:46.371Z,2.08
2023-01-13T02:10:53.483Z,1.27
2023-01-13T02:12:13.375Z,1.23
2023-01-13T02:13:14.919Z,1.88
2023-01-13T02:14:17.176Z,2.88
2023-01-13T02:15:22.577Z,1.08
2023-01-13T02:16:24.798Z,2.20
2023-01-13T02:17:45.762Z,1.17
2023-01-13T02:19:16.746Z,1.30
2023-01-13T02:20:56.127Z,1.77
2023-01-13T02:22:32.172Z,6.75
2023-01-13T02:24:26.494Z,0.77
2023-01-13T02:25:40.137Z,2.13
2023-01-13T02:27:14.523Z,2.90
2023-01-13T02:28:34.872Z,1.20
2023-01-13T02:30:22.991Z,1.58
2023-01-13T02:31:42.686Z,0.90
2023-01-13T02:33:11.993Z,1.13
2023-01-13T02:34:17.240Z,1.13
2023-01-13T02:35:31.534Z,1.35
2023-01-13T02:36:48.765Z,0.85
2023-01-13T02:37:51.596Z,1.35
2023-01-13T02:39:18.068Z,1.73
2023-01-13T02:40:29.252Z,2.95
2023-01-13T02:42:23.219Z,1.70
2023-01-13T02:43:58.419Z,1.65
2023-01-13T02:45:28.205Z,0.70
2023-01-13T02:46:33.130Z,2.40
2023-01-13T02:47:39.198Z,1.90
2023-01-13T02:48:44.608Z,2.53
2023-01-13T02:49:54.640Z,0.80
2023-01-13T02:51:02.557Z,2.42
2023-01-13T02:52:19.473Z,1.80
2023-01-13T02:53:30.553Z,2.47
2023-01-13T02:54:35.410Z,2.53
2023-01-13T02:55:42.683Z,3.80
2023-01-13T02:56:48.692Z,1.63
2023-01-13T02:57:52.792Z,1.88
2023-01-13T02:58:56.203Z,1.02
2023-01-13T02:59:57.854Z,3.00
2023-01-13T03:00:59.340Z,1.13
2023-01-13T03:02:04.044Z,1.23
2023-01-13T03:03:05.576Z,1.15
2023-01-13T03:04:14.983Z,0.80
2023-01-13T03:05:17.437Z,1.83
2023-01-13T03:06:33.832Z,1.60
2023-01-13T03:08:01.363Z,1.27
2023-01-13T03:09:15.167Z,1.80
2023-01-13T03:10:33.350Z,3.00
2023-01-13T03:11:47.499Z,2.10
2023-01-13T03:13:24.421Z,1.52
2023-01-13T03:14:56.843Z,1.48
2023-01-13T03:16:24.007Z,1.10
2023-01-13T03:17:44.049Z,0.85
2023-01-13T03:20:12.356Z,1.33
2023-01-13T03:21:39.799Z,2.63
2023-01-13T03:23:03.164Z,0.90
2023-01-13T03:24:12.787Z,1.25
2023-01-13T03:25:31.181Z,2.40
2023-01-13T03:26:43.923Z,0.75
2023-01-13T03:27:57.888Z,1.08
2023-01-13T03:30:19.319Z,0.95
2023-01-13T03:31:30.143Z,1.55
2023-01-13T03:32:38.993Z,3.08
2023-01-13T03:33:57.434Z,2.58
2023-01-13T03:35:11.251Z,1.27
2023-01-13T03:36:16.668Z,2.13
2023-01-13T03:37:23.239Z,1.17
2023-01-13T03:38:36.941Z,2.22
2023-01-13T03:39:43.246Z,1.38
2023-01-13T03:40:54.646Z,1.02
2023-01-13T03:42:02.240Z,0.68
2023-01-13T03:43:29.160Z,0.60
2023-01-13T03:44:35.872Z,1.85
2023-01-13T03:45:39.841Z,2.28
2023-01-13T03:46:48.053Z,1.23
2023-01-13T03:47:54.925Z,1.25
2023-01-13T03:48:58.764Z,3.10
2023-01-13T03:50:18.713Z,1.42
2023-01-13T03:51:24.532Z,1.67
2023-01-13T03:52:33.736Z,1.65
2023-01-13T03:53:40.667Z,1.88
2023-01-13T03:54:48.259Z,1.67
2023-01-13T03:55:59.208Z,1.75
2023-01-13T03:57:06.967Z,1.65
2023-01-13T03:58:17.028Z,0.95
2023-01-13T03:59:25.742Z,1.25
2023-01-13T04:00:32.360Z,1.38
2023-01-13T04:01:53.001Z,1.88
2023-01-13T04:03:09.479Z,1.10
2023-01-13T04:04:21.582Z,0.77
2023-01-13T04:05:23.576Z,1.77
2023-01-13T04:07:47.662Z,1.10
2023-01-13T04:08:55.782Z,2.78
2023-01-13T04:10:02.133Z,1.25
2023-01-13T04:11:08.133Z,1.75
2023-01-13T04:12:26.452Z,0.52
2023-01-13T04:13:32.301Z,1.10
2023-01-13T04:14:35.565Z,3.25
2023-01-13T04:15:42.648Z,1.08
2023-01-13T04:16:44.244Z,1.67
2023-01-13T04:17:45.687Z,0.82
2023-01-13T04:18:49.982Z,1.30
2023-01-13T04:19:51.393Z,1.25
2023-01-13T04:20:56.079Z,1.13
2023-01-13T04:21:57.554Z,1.05
2023-01-13T04:22:59.068Z,1.92
2023-01-13T04:24:00.527Z,1.08
2023-01-13T04:25:02.175Z,2.33
2023-01-13T04:26:03.624Z,1.77
2023-01-13T04:27:06.115Z,1.35
2023-01-13T04:28:07.860Z,2.15
2023-01-13T04:29:09.334Z,0.75
2023-01-13T04:30:11.299Z,1.00
2023-01-13T04:31:12.833Z,2.83
2023-01-13T04:32:14.287Z,1.58
2023-01-13T04:33:18.270Z,1.90
2023-01-13T04:34:19.760Z,2.15
2023-01-13T04:35:21.232Z,4.32
2023-01-13T04:36:27.397Z,1.25
2023-01-13T04:37:28.858Z,2.20
2023-01-13T04:38:30.233Z,2.00
2023-01-13T04:39:31.742Z,2.35
2023-01-13T04:40:33.183Z,0.95
2023-01-13T04:41:53.286Z,1.77
2023-01-13T04:42:54.772Z,0.77
2023-01-13T04:43:56.212Z,1.33
2023-01-13T04:44:57.634Z,1.55
2023-01-13T04:45:59.104Z,0.88
2023-01-13T04:47:02.322Z,1.85
2023-01-13T04:48:03.964Z,0.85
2023-01-13T04:49:05.404Z,1.23
2023-01-13T04:50:07.209Z,1.13
2023-01-13T04:51:08.629Z,1.02
2023-01-13T04:52:10.044Z,1.60
2023-01-13T04:53:11.632Z,2.10
2023-01-13T04:54:13.183Z,1.58
2023-01-13T04:55:16.000Z,1.30
2023-01-13T04:56:17.735Z,1.58
2023-01-13T04:57:19.180Z,1.27
2023-01-13T04:58:21.033Z,1.42
2023-01-13T04:59:22.433Z,1.60
2023-01-13T05:00:23.905Z,1.00
2023-01-13T05:01:25.488Z,1.65
2023-01-13T05:02:26.956Z,0.57
2023-01-13T05:03:28.360Z,1.48
2023-01-13T05:04:29.847Z,1.17
2023-01-13T05:05:31.525Z,1.35
2023-01-13T05:06:33.319Z,0.93
2023-01-13T05:07:34.793Z,1.00
2023-01-13T05:08:36.241Z,1.33
2023-01-13T05:09:37.708Z,1.40
2023-01-13T05:10:39.239Z,0.88
2023-01-13T05:11:59.059Z,2.72
2023-01-13T05:13:18.922Z,1.45
2023-01-13T05:14:38.738Z,2.30
2023-01-13T05:16:00.580Z,2.08
2023-01-13T05:17:03.127Z,1.98
2023-01-13T05:18:05.126Z,1.38
2023-01-13T05:20:09.232Z,1.73
2023-01-13T05:21:30.587Z,1.27
2023-01-13T05:22:50.609Z,1.10
2023-01-13T05:25:28.109Z,1.17
2023-01-13T05:26:29.511Z,1.15
2023-01-13T05:27:31.647Z,0.50
2023-01-13T05:28:33.878Z,1.05
2023-01-13T05:29:35.293Z,1.58
2023-01-13T05:30:42.218Z,1.65
2023-01-13T05:31:43.652Z,1.30
2023-01-13T05:32:45.077Z,1.35
2023-01-13T05:33:46.517Z,1.40
2023-01-13T05:34:48.040Z,1.20
2023-01-13T05:35:49.699Z,2.53
2023-01-13T05:36:51.127Z,0.93
2023-01-13T05:37:54.811Z,1.55
2023-01-13T05:38:56.227Z,3.65
2023-01-13T05:40:16.232Z,2.58
2023-01-13T05:42:56.717Z,1.90
2023-01-13T05:44:59.407Z,1.45
2023-01-13T05:46:09.129Z,1.30
2023-01-13T05:47:10.653Z,0.68
2023-01-13T05:48:12.429Z,1.00
2023-01-13T05:49:13.827Z,1.75
2023-01-13T05:50:15.742Z,1.10
2023-01-13T05:51:17.144Z,1.20
2023-01-13T05:52:18.568Z,0.75
2023-01-13T05:53:21.379Z,2.03
2023-01-13T05:54:22.766Z,1.45
2023-01-13T05:55:24.192Z,1.23
2023-01-13T05:56:25.645Z,1.00
2023-01-13T05:57:27.158Z,1.95
2023-01-13T05:58:28.634Z,2.60
2023-01-13T05:59:30.069Z,1.23
2023-01-13T06:00:31.536Z,1.45
2023-01-13T06:01:33.282Z,1.88
2023-01-13T06:02:34.801Z,0.68
2023-01-13T06:03:36.896Z,2.80
2023-01-13T06:04:38.368Z,0.80
2023-01-13T06:05:40.029Z,0.50
2023-01-13T06:06:43.404Z,0.80
2023-01-13T06:07:44.832Z,0.65
2023-01-13T06:08:46.264Z,0.85
2023-01-13T06:09:47.675Z,1.20
2023-01-13T06:10:49.097Z,4.72
2023-01-13T06:11:50.539Z,1.63
2023-01-13T06:12:52.654Z,1.17
2023-01-13T06:13:54.125Z,0.70
2023-01-13T06:14:55.554Z,0.65
2023-01-13T06:16:00.145Z,1.15
2023-01-13T06:17:01.588Z,0.98
2023-01-13T06:18:04.572Z,1.20
2023-01-13T06:19:12.821Z,0.63
2023-01-13T06:20:15.884Z,1.50
2023-01-13T06:21:17.378Z,1.70
2023-01-13T06:22:24.065Z,0.52
2023-01-13T06:23:26.180Z,0.55
2023-01-13T06:24:28.426Z,0.75
2023-01-13T06:26:05.400Z,1.33
2023-01-13T06:27:08.440Z,1.58
2023-01-13T06:28:10.601Z,1.35
2023-01-13T06:29:14.955Z,1.23
2023-01-13T06:30:17.417Z,0.63
2023-01-13T06:31:19.935Z,1.20
2023-01-13T06:32:28.905Z,1.30
2023-01-13T06:33:36.705Z,0.63
2023-01-13T06:34:40.059Z,1.10
2023-01-13T06:35:46.326Z,1.33
2023-01-13T06:36:53.636Z,1.80
2023-01-13T06:37:57.808Z,2.03
2023-01-13T06:39:02.663Z,1.50
2023-01-13T06:40:06.565Z,3.70
2023-01-13T06:41:08.869Z,1.02
2023-01-13T06:42:28.659Z,2.15
2023-01-13T06:43:30.066Z,1.15
2023-01-13T06:44:31.503Z,2.67
2023-01-13T06:45:33.199Z,2.75
2023-01-13T06:46:35.602Z,1.90
2023-01-13T06:47:37.211Z,2.13
2023-01-13T06:48:38.670Z,1.17
2023-01-13T06:49:40.099Z,0.70
2023-01-13T06:50:42.270Z,0.82
2023-01-13T06:51:43.891Z,4.05
2023-01-13T06:52:45.368Z,4.30
2023-01-13T06:53:46.745Z,0.80
2023-01-13T06:54:48.157Z,1.52
2023-01-13T06:55:49.595Z,1.52
2023-01-13T06:56:51.055Z,2.55
2023-01-13T06:57:55.095Z,2.97
2023-01-13T06:58:56.563Z,1.27
2023-01-13T06:59:57.965Z,1.05
2023-01-13T07:01:01.109Z,1.17
2023-01-13T07:02:03.256Z,0.70
2023-01-13T07:03:08.931Z,1.88
2023-01-13T07:04:10.363Z,0.85
2023-01-13T07:05:12.031Z,1.98
2023-01-13T07:06:13.485Z,1.23
2023-01-13T07:07:14.936Z,1.67
2023-01-13T07:08:16.422Z,1.20
2023-01-13T07:09:17.910Z,1.88
2023-01-13T07:10:22.317Z,0.85
2023-01-13T07:11:24.886Z,1.10
2023-01-13T07:12:26.317Z,3.05
2023-01-13T07:13:46.298Z,1.35
2023-01-13T07:16:09.120Z,1.30
2023-01-13T07:17:10.642Z,1.02
2023-01-13T07:18:12.067Z,6.63
2023-01-13T07:19:13.564Z,1.30
2023-01-13T07:20:16.735Z,1.42
2023-01-13T07:21:19.933Z,2.25
2023-01-13T07:22:21.413Z,2.22
2023-01-13T07:23:23.432Z,0.85
2023-01-13T07:25:26.416Z,2.13
2023-01-13T07:26:27.873Z,2.05
2023-01-13T07:27:29.333Z,1.50
2023-01-13T07:28:31.556Z,1.23
2023-01-13T07:29:32.956Z,2.25
2023-01-13T07:30:34.379Z,1.05
2023-01-13T07:31:36.488Z,1.00
2023-01-13T07:32:38.043Z,1.42
2023-01-13T07:33:39.702Z,1.15
2023-01-13T07:34:41.269Z,3.67
2023-01-13T07:35:42.683Z,2.00
2023-01-13T07:36:44.118Z,2.22
2023-01-13T07:37:45.615Z,1.80
2023-01-13T07:38:47.042Z,2.15
2023-01-13T07:39:50.142Z,0.93
2023-01-13T07:40:51.625Z,2.15
2023-01-13T07:42:11.580Z,1.40
2023-01-13T07:43:42.059Z,4.25
2023-01-13T07:44:43.511Z,0.98
2023-01-13T07:45:44.947Z,1.02
2023-01-13T07:46:46.449Z,1.63
2023-01-13T07:47:51.302Z,1.10
2023-01-13T07:48:52.735Z,0.70
2023-01-13T07:49:54.137Z,1.10
2023-01-13T07:50:55.766Z,0.60
2023-01-13T07:51:57.535Z,2.05
2023-01-13T07:52:59.241Z,0.90
2023-01-13T07:54:00.719Z,0.95
2023-01-13T07:55:02.191Z,2.30
2023-01-13T07:56:05.880Z,0.60
2023-01-13T07:57:07.517Z,0.70
2023-01-13T07:58:10.000Z,1.17
2023-01-13T07:59:11.555Z,1.00
2023-01-13T08:00:13.387Z,2.70
2023-01-13T08:01:16.654Z,0.73
2023-01-13T08:02:18.341Z,1.67
2023-01-13T08:03:20.475Z,0.82
2023-01-13T08:04:22.110Z,1.65
2023-01-13T08:05:23.517Z,1.45
2023-01-13T08:06:26.191Z,1.15
2023-01-13T08:07:27.632Z,1.33
2023-01-13T08:08:29.087Z,0.63
2023-01-13T08:09:30.533Z,2.05
2023-01-13T08:10:32.021Z,1.73
2023-01-13T08:11:33.441Z,1.67
2023-01-13T08:12:56.967Z,1.85
2023-01-13T08:13:58.801Z,1.23
2023-01-13T08:15:00.242Z,0.82
2023-01-13T08:16:07.355Z,2.30
2023-01-13T08:17:09.760Z,2.28
2023-01-13T08:18:11.874Z,1.92
2023-01-13T08:19:13.363Z,1.60
2023-01-13T08:20:15.012Z,1.17
2023-01-13T08:21:16.766Z,3.03
2023-01-13T08:22:18.222Z,2.05
2023-01-13T08:23:21.483Z,1.05
2023-01-13T08:24:25.827Z,1.08
2023-01-13T08:25:28.917Z,2.13
2023-01-13T08:26:30.371Z,1.67
2023-01-13T08:27:31.882Z,0.93
2023-01-13T08:28:33.522Z,1.83
2023-01-13T08:29:34.953Z,3.10
2023-01-13T08:30:36.660Z,3.50
2023-01-13T08:31:38.076Z,2.45
2023-01-13T08:32:39.487Z,0.73
2023-01-13T08:33:41.677Z,2.30
2023-01-13T08:34:43.107Z,1.27
2023-01-13T08:35:44.515Z,1.77
2023-01-13T08:36:45.944Z,0.80
2023-01-13T08:37:48.298Z,1.90
2023-01-13T08:38:49.738Z,1.85
2023-01-13T08:39:51.149Z,1.70
2023-01-13T08:40:52.928Z,0.85
2023-01-13T08:41:58.348Z,1.13
2023-01-13T08:43:00.730Z,1.48
2023-01-13T08:44:02.169Z,3.05
2023-01-13T08:45:04.533Z,4.57
2023-01-13T08:46:06.244Z,2.40
2023-01-13T08:47:07.701Z,0.98
2023-01-13T08:48:09.176Z,1.70
2023-01-13T08:49:10.751Z,2.05
2023-01-13T08:50:12.489Z,1.83
2023-01-13T08:51:14.046Z,1.20
2023-01-13T08:52:16.150Z,2.53
2023-01-13T08:53:17.583Z,4.55
2023-01-13T08:54:19.449Z,3.08
2023-01-13T08:55:21.009Z,3.83
2023-01-13T08:56:22.485Z,2.67
2023-01-13T08:57:24.127Z,1.48
2023-01-13T08:58:25.777Z,1.92
2023-01-13T08:59:27.235Z,2.28
2023-01-13T09:00:31.027Z,1.08
2023-01-13T09:01:33.899Z,1.60
2023-01-13T09:02:35.674Z,3.40
2023-01-13T09:03:37.179Z,1.67
2023-01-13T09:04:39.041Z,4.80
2023-01-13T09:05:40.589Z,1.73
2023-01-13T09:06:42.158Z,3.25
2023-01-13T09:07:43.602Z,3.38
2023-01-13T09:08:45.551Z,5.40
2023-01-13T09:09:47.031Z,1.55
2023-01-13T09:10:48.496Z,2.25
2023-01-13T09:12:09.841Z,3.00
2023-01-13T09:13:13.888Z,1.77
2023-01-13T09:14:20.993Z,1.58
2023-01-13T09:15:22.468Z,1.77
2023-01-13T09:16:23.895Z,1.30
2023-01-13T09:17:25.367Z,3.63
2023-01-13T09:18:26.773Z,1.98
2023-01-13T09:19:29.153Z,2.85
2023-01-13T09:20:30.607Z,2.47
2023-01-13T09:21:32.040Z,2.17
2023-01-13T09:22:36.260Z,2.42
2023-01-13T09:23:37.667Z,3.88
2023-01-13T09:24:39.206Z,2.78
2023-01-13T09:25:40.697Z,4.30
2023-01-13T09:26:42.124Z,1.55
2023-01-13T09:27:43.555Z,1.83
2023-01-13T09:28:44.965Z,1.85
2023-01-13T09:29:46.443Z,1.30
2023-01-13T09:30:47.893Z,1.92
2023-01-13T09:31:49.344Z,2.60
2023-01-13T09:33:10.706Z,2.88
2023-01-13T09:34:37.015Z,1.58
2023-01-13T09:35:38.449Z,1.40
2023-01-13T09:36:39.874Z,1.67
2023-01-13T09:37:41.636Z,3.78
2023-01-13T09:38:43.079Z,2.65
2023-01-13T09:39:44.515Z,1.83
2023-01-13T09:40:48.942Z,2.08
2023-01-13T09:42:12.941Z,2.65
2023-01-13T09:43:55.552Z,2.42
2023-01-13T09:45:04.845Z,3.05
2023-01-13T09:46:46.935Z,1.90
2023-01-13T09:48:01.767Z,1.13
2023-01-13T09:49:04.295Z,0.85
2023-01-13T09:50:34.169Z,1.40
2023-01-13T09:51:41.534Z,2.60
2023-01-13T09:52:43.357Z,3.45
2023-01-13T09:54:00.562Z,0.90
2023-01-13T09:55:14.257Z,3.25
2023-01-13T09:56:15.667Z,1.80
2023-01-13T09:57:19.263Z,1.38
2023-01-13T09:58:21.061Z,2.35
2023-01-13T09:59:32.556Z,1.95
2023-01-13T10:00:44.833Z,2.00
2023-01-13T10:02:11.758Z,2.38
2023-01-13T10:03:19.584Z,3.33
2023-01-13T10:04:21.249Z,1.70
2023-01-13T10:05:34.594Z,1.45
2023-01-13T10:06:42.138Z,3.22
2023-01-13T10:07:50.449Z,2.08
2023-01-13T10:08:51.910Z,3.10
2023-01-13T10:09:55.497Z,2.63
2023-01-13T10:11:33.024Z,2.78
2023-01-13T10:12:53.146Z,1.45
2023-01-13T10:14:00.900Z,5.13
2023-01-13T10:15:02.493Z,2.10
2023-01-13T10:16:30.979Z,3.58
2023-01-13T10:17:40.013Z,1.58
2023-01-13T10:19:03.504Z,3.28
2023-01-13T10:20:24.750Z,3.92
2023-01-13T10:21:31.931Z,2.42
2023-01-13T10:22:47.114Z,2.95
2023-01-13T10:23:48.543Z,5.88
2023-01-13T10:25:28.250Z,4.45
2023-01-13T10:26:52.705Z,1.10
2023-01-13T10:28:01.488Z,1.70
2023-01-13T10:29:03.151Z,1.75
2023-01-13T10:30:35.836Z,5.63
2023-01-13T10:31:37.432Z,2.75
2023-01-13T10:32:42.827Z,1.98
2023-01-13T10:33:44.289Z,2.40
2023-01-13T10:34:51.411Z,1.58
2023-01-13T10:36:02.087Z,2.05
2023-01-13T10:37:09.144Z,2.60
2023-01-13T10:38:20.368Z,1.25
2023-01-13T10:39:21.872Z,2.50
2023-01-13T10:40:23.401Z,1.98
2023-01-13T10:41:27.479Z,3.53
2023-01-13T10:42:29.127Z,2.15
2023-01-13T10:43:31.251Z,1.45
2023-01-13T10:44:46.592Z,1.55
2023-01-13T10:46:12.028Z,3.58
2023-01-13T10:47:27.187Z,2.78
2023-01-13T10:48:55.965Z,1.85
2023-01-13T10:50:12.183Z,2.40
2023-01-13T10:51:24.869Z,1.52
2023-01-13T10:52:33.342Z,1.52
2023-01-13T10:53:45.648Z,0.82
2023-01-13T10:54:52.510Z,1.67
2023-01-13T10:56:03.621Z,2.90
2023-01-13T10:57:23.977Z,1.98
2023-01-13T10:58:25.832Z,2.67
2023-01-13T10:59:27.408Z,3.13
2023-01-13T11:00:34.863Z,2.10
2023-01-13T11:01:37.000Z,2.67
2023-01-13T11:02:38.689Z,2.10
2023-01-13T11:03:42.935Z,4.28
2023-01-13T11:04:57.884Z,2.60
2023-01-13T11:06:00.702Z,2.63
2023-01-13T11:07:04.814Z,1.88
2023-01-13T11:08:18.302Z,1.95
2023-01-13T11:09:20.944Z,1.27
2023-01-13T11:10:27.294Z,3.60
2023-01-13T11:11:43.206Z,2.03
2023-01-13T11:13:16.612Z,2.80
2023-01-13T11:14:41.681Z,2.13
2023-01-13T11:15:58.315Z,2.80
2023-01-13T11:17:18.081Z,3.83
2023-01-13T11:18:43.526Z,3.53
2023-01-13T11:19:52.266Z,2.30
2023-01-13T11:20:57.104Z,5.32
2023-01-13T11:22:07.346Z,1.30
2023-01-13T11:23:27.221Z,3.63
2023-01-13T11:24:31.451Z,1.85
2023-01-13T11:25:43.063Z,1.98
2023-01-13T11:26:51.363Z,1.00
2023-01-13T11:28:00.691Z,2.80
2023-01-13T11:29:41.231Z,1.17
2023-01-13T11:30:45.417Z,3.60
2023-01-13T11:31:52.105Z,3.13
2023-01-13T11:33:15.169Z,3.75
2023-01-13T11:34:25.821Z,2.80
2023-01-13T11:35:29.580Z,3.28
2023-01-13T11:36:40.182Z,2.28
2023-01-13T11:37:49.374Z,3.40
2023-01-13T11:38:52.965Z,4.55
2023-01-13T11:40:15.959Z,2.33
2023-01-13T11:41:20.416Z,2.33
2023-01-13T11:42:46.680Z,2.72
2023-01-13T11:43:52.056Z,4.18
2023-01-13T11:45:06.110Z,5.03
2023-01-13T11:47:12.717Z,4.40
2023-01-13T11:48:17.456Z,4.15
2023-01-13T11:49:32.668Z,2.15
2023-01-13T11:50:48.056Z,2.50
2023-01-13T11:52:00.554Z,2.15
2023-01-13T11:53:10.396Z,2.28
2023-01-13T11:54:26.332Z,1.98
2023-01-13T11:55:34.923Z,2.58
2023-01-13T11:57:02.048Z,5.28
2023-01-13T11:58:25.155Z,4.35
2023-01-13T11:59:55.676Z,3.30
2023-01-13T12:01:25.355Z,3.22
2023-01-13T12:02:51.554Z,2.58
2023-01-13T12:04:08.236Z,1.83
2023-01-13T12:05:31.636Z,2.67
2023-01-13T12:06:39.955Z,5.28
2023-01-13T12:08:20.712Z,3.28
2023-01-13T12:09:33.294Z,3.13
2023-01-13T12:11:05.295Z,2.50
2023-01-13T12:13:53.474Z,5.03
2023-01-13T12:15:04.086Z,3.40
2023-01-13T12:16:30.535Z,3.30
2023-01-13T12:18:06.515Z,5.43
2023-01-13T12:19:20.041Z,1.52
2023-01-13T12:20:49.701Z,3.65
2023-01-13T12:22:14.869Z,3.65
2023-01-13T12:23:32.324Z,3.42
2023-01-13T12:24:58.946Z,2.90
2023-01-13T12:26:07.789Z,5.00
2023-01-13T12:27:32.031Z,6.25
2023-01-13T12:29:12.447Z,4.10
2023-01-13T12:30:27.516Z,4.15
2023-01-13T12:31:30.605Z,4.13
2023-01-13T12:32:38.577Z,3.67
2023-01-13T12:33:52.249Z,3.88
2023-01-13T12:35:05.676Z,5.38
2023-01-13T12:36:35.195Z,3.40
2023-01-13T12:37:45.533Z,6.40
2023-01-13T12:38:56.981Z,4.22
2023-01-13T12:40:15.746Z,5.00
2023-01-13T12:41:20.182Z,4.95
2023-01-13T12:43:04.909Z,4.68
2023-01-13T12:44:17.008Z,4.47
2023-01-13T12:45:23.111Z,6.03
2023-01-13T12:46:24.577Z,6.05
2023-01-13T12:47:52.859Z,5.88
2023-01-13T12:48:55.289Z,4.20
2023-01-13T12:50:22.693Z,3.85
2023-01-13T12:51:28.280Z,5.00
2023-01-13T12:52:44.169Z,4.30
2023-01-13T12:53:45.727Z,6.80
2023-01-13T12:54:47.308Z,3.58
2023-01-13T12:55:53.181Z,3.53
2023-01-13T12:56:55.066Z,4.13
2023-01-13T12:58:15.291Z,3.03
2023-01-13T12:59:16.762Z,4.03
2023-01-13T13:00:18.711Z,6.13
2023-01-13T13:02:38.099Z,8.98
2023-01-13T13:03:40.239Z,6.53
2023-01-13T13:06:07.677Z,3.65
2023-01-13T13:07:13.911Z,6.78
2023-01-13T13:08:58.439Z,6.07
2023-01-13T13:10:13.958Z,3.90
2023-01-13T13:11:38.035Z,3.88
2023-01-13T13:13:01.086Z,5.57
2023-01-13T13:14:38.099Z,4.13
2023-01-13T13:15:39.761Z,4.80
2023-01-13T13:16:47.535Z,4.88
2023-01-13T13:18:03.531Z,4.03
2023-01-13T13:19:20.216Z,4.00
2023-01-13T13:21:03.643Z,4.03
2023-01-13T13:22:18.982Z,3.95
2023-01-13T13:23:52.791Z,5.25
2023-01-13T13:24:54.344Z,4.70
2023-01-13T13:26:20.512Z,4.90
2023-01-13T13:27:30.201Z,5.05
2023-01-13T13:28:39.151Z,4.47
2023-01-13T13:29:52.673Z,8.13
2023-01-13T13:31:17.142Z,5.75
2023-01-13T13:32:41.866Z,7.20
2023-01-13T13:34:11.685Z,4.65
2023-01-13T13:35:40.071Z,5.03
2023-01-13T13:37:03.491Z,9.38
2023-01-13T13:38:27.630Z,5.93
2023-01-13T13:39:49.680Z,3.60
2023-01-13T13:41:10.026Z,2.88
2023-01-13T13:42:54.713Z,3.95
2023-01-13T13:44:21.321Z,4.05
2023-01-13T13:45:43.897Z,5.30
2023-01-13T13:46:47.224Z,7.65
2023-01-13T13:47:48.899Z,4.88
2023-01-13T13:48:54.467Z,4.82
2023-01-13T13:49:56.579Z,4.35
2023-01-13T13:51:04.652Z,5.28
2023-01-13T13:53:12.583Z,5.15
2023-01-13T13:54:18.477Z,6.47
2023-01-13T13:55:28.562Z,7.38
2023-01-13T13:56:43.177Z,5.60
2023-01-13T13:57:50.980Z,4.80
2023-01-13T13:58:53.399Z,6.57
2023-01-13T13:59:57.655Z,4.03
2023-01-13T14:01:00.792Z,6.60
2023-01-13T14:02:03.949Z,5.65
2023-01-13T14:03:28.681Z,5.28
2023-01-13T14:04:40.558Z,4.78
2023-01-13T14:05:56.578Z,4.88
2023-01-13T14:06:59.390Z,4.95
2023-01-13T14:08:02.291Z,4.28
2023-01-13T14:09:04.317Z,7.57
2023-01-13T14:11:27.673Z,4.90
2023-01-13T14:12:30.240Z,4.47
2023-01-13T14:13:32.091Z,4.88
2023-01-13T14:14:33.564Z,4.78
2023-01-13T14:15:38.629Z,6.18
2023-01-13T14:16:41.023Z,8.65
2023-01-13T14:17:42.476Z,6.45
2023-01-13T14:18:48.060Z,5.00
2023-01-13T14:20:13.109Z,6.38
2023-01-13T14:21:29.247Z,3.30
2023-01-13T14:22:32.423Z,3.47
2023-01-13T14:23:34.071Z,6.53
2023-01-13T14:24:46.382Z,3.65
2023-01-13T14:25:51.877Z,3.55
2023-01-13T14:26:53.404Z,7.47
2023-01-13T14:27:57.095Z,4.90
2023-01-13T14:29:00.946Z,4.35
2023-01-13T14:30:02.931Z,5.22
2023-01-13T14:32:07.456Z,6.00
2023-01-13T14:33:17.433Z,6.22
2023-01-13T14:34:30.584Z,5.07
2023-01-13T14:35:34.401Z,4.78
2023-01-13T14:36:37.627Z,4.38
2023-01-13T14:37:41.801Z,4.82
2023-01-13T14:38:46.411Z,8.95
2023-01-13T14:39:47.842Z,6.60
2023-01-13T14:40:49.440Z,5.07
2023-01-13T14:41:51.078Z,5.38
2023-01-13T14:43:03.177Z,4.63
2023-01-13T14:44:26.946Z,4.55
2023-01-13T14:45:29.769Z,3.17
2023-01-13T14:46:45.197Z,6.78
2023-01-13T14:47:53.077Z,3.03
2023-01-13T14:49:04.181Z,4.80
2023-01-13T14:50:05.910Z,6.05
2023-01-13T14:51:11.481Z,5.00
2023-01-13T14:52:17.680Z,4.20
2023-01-13T14:53:28.872Z,5.90
2023-01-13T14:54:48.951Z,4.00
2023-01-13T14:56:53.850Z,4.00
2023-01-13T14:58:23.311Z,5.47
2023-01-13T14:59:47.399Z,6.05
2023-01-13T15:01:12.859Z,6.72
2023-01-13T15:02:29.675Z,4.28
2023-01-13T15:03:41.945Z,5.65
2023-01-13T15:04:43.916Z,6.35
2023-01-13T15:05:51.149Z,6.78
2023-01-13T15:06:55.536Z,5.43
2023-01-13T15:08:28.337Z,5.25
2023-01-13T15:09:39.928Z,6.30
2023-01-13T15:10:52.645Z,5.75
2023-01-13T15:11:56.219Z,5.72
2023-01-13T15:12:59.672Z,7.10
2023-01-13T15:14:01.589Z,4.65
2023-01-13T15:15:25.029Z,6.38
2023-01-13T15:16:28.053Z,5.30
2023-01-13T15:17:29.481Z,4.13
2023-01-13T15:18:32.571Z,4.07
2023-01-13T15:19:34.030Z,5.40
2023-01-13T15:20:35.497Z,5.90
2023-01-13T15:21:36.968Z,11.02
2023-01-13T15:22:38.385Z,29.10
2023-01-13T15:23:41.048Z,6.88
2023-01-13T15:24:42.670Z,7.72
2023-01-13T15:25:44.469Z,6.35
2023-01-13T15:26:45.966Z,5.05
2023-01-13T15:27:50.933Z,8.90